Lublin, Poland

6:43 PM CEST on September 02, 2014 (GMT +0200)
Ponikwoda | Change Station
CLOSE
Current Station
Personal Weather Station
Location: Lublin, LUBELSKIE
Elevation: 636 ft
Nearby Weather Stations

Elev 636 ft 51.27 °N, 22.58 °E | Updated 2 minutes ago

Mostly Cloudy
Mostly Cloudy
65.7 °F
Feels Like 65.7 °F
N
2.2
Wind Variable Wind from West
Gusts 3.1 mph

Today
High -- | Low -- °F
--% Chance of Precip.
Yesterday
High -- | Low -- °F
Precip. -- in
5:44 AM 7:14 PM
First Quarter, 53% visible
Pressure 30.09 in
Visibility 6.2 miles
Clouds Mostly Cloudy 2200 ft
Dew Point 60 °F
Humidity 81%
Rainfall 0.00 in
Snow Depth Not available.
UV 0 out of 12
Pollen Not available.
Air Quality Not available.
Flu Activity Not available.
METAR EPLB 021630Z 04008KT 9999 BKN022 18/15 Q1019

More Conditions Fewer Conditions

Pressure 30.09 in
Visibility 6.2 miles
Clouds Mostly Cloudy 2200 ft
Dew Point 60 °F
Humidity 81%
Rainfall 0.00 in
Snow Depth Not available.
UV 0 out of 12
Pollen Not available.
Air Quality Not available.
Flu Activity Not available.
METAR EPLB 021630Z 04008KT 9999 BKN022 18/15 Q1019

More Conditions Fewer Conditions

10-Day Weather Forecast

Almanac

Astronomy

Sep. 02, 2014 Rise Set
Actual Time 5:44 AM CEST 7:14 PM CEST
Civil Twilight 5:10 AM CEST 7:49 PM CEST
Nautical Twilight 4:27 AM CEST 8:31 PM CEST
Astronomical Twilight 3:41 AM CEST 9:17 PM CEST
Moon 1:58 PM CEST 11:03 PM CEST
Length of Visible Light 14h 38m
Length of Day
13h 29m
Tomorrow will be 3m 47s shorter.
First Quarter, 53% of the Moon is Illuminated
Today
First Quarter
Sep 8
Full
Sep 15
Last Quarter
Sep 24
New
Oct 1
First Quarter

Today's Extremes

Country Highs Country Lows

Community

WunderPhotos

Upload Photos

1,749,716 photos uploaded!

Nearby

Snow Depth

Not available.

Earthquake Activity

City Distance Mag. Time & Date
No recent earthquake activity has been reported nearby.
Minimum magnitude displayed is 2.5.

Coastal Water Temperatures

Place Temperature
No Stations Reporting

Nearby Weather Stations